sensor_id;sensor_type;location;lat;lon;timestamp;pressure;altitude;pressure_sealevel;temperature;humidity
27334;BME280;14817;57.104;-2.094;2022-09-30T00:01:06;99716.22;;;11.77;90.70
27334;BME280;14817;57.104;-2.094;2022-09-30T00:03:32;99706.16;;;11.79;90.40
27334;BME280;14817;57.104;-2.094;2022-09-30T00:06:01;99709.03;;;11.78;90.48
27334;BME280;14817;57.104;-2.094;2022-09-30T00:08:35;99708.38;;;11.76;90.60
27334;BME280;14817;57.104;-2.094;2022-09-30T00:11:13;99704.38;;;11.72;90.88
27334;BME280;14817;57.104;-2.094;2022-09-30T00:13:42;99699.94;;;11.79;90.70
27334;BME280;14817;57.104;-2.094;2022-09-30T00:16:12;99704.66;;;11.77;90.79
27334;BME280;14817;57.104;-2.094;2022-09-30T00:18:40;99707.00;;;11.80;90.71
27334;BME280;14817;57.104;-2.094;2022-09-30T00:21:07;99702.63;;;11.79;90.94
27334;BME280;14817;57.104;-2.094;2022-09-30T00:23:35;99697.94;;;11.81;90.95
27334;BME280;14817;57.104;-2.094;2022-09-30T00:26:06;99693.75;;;11.78;91.20
27334;BME280;14817;57.104;-2.094;2022-09-30T00:28:33;99691.91;;;11.79;91.15
27334;BME280;14817;57.104;-2.094;2022-09-30T00:31:03;99693.09;;;11.76;91.36
27334;BME280;14817;57.104;-2.094;2022-09-30T00:33:34;99695.63;;;11.78;90.99
27334;BME280;14817;57.104;-2.094;2022-09-30T00:36:01;99687.91;;;11.75;91.32
27334;BME280;14817;57.104;-2.094;2022-09-30T00:38:29;99689.94;;;11.73;91.00
27334;BME280;14817;57.104;-2.094;2022-09-30T00:40:56;99684.22;;;11.76;90.90
27334;BME280;14817;57.104;-2.094;2022-09-30T00:43:45;99677.56;;;11.72;91.18
27334;BME280;14817;57.104;-2.094;2022-09-30T00:46:38;99679.38;;;11.71;91.23
27334;BME280;14817;57.104;-2.094;2022-09-30T00:49:18;99654.41;;;11.71;91.21
27334;BME280;14817;57.104;-2.094;2022-09-30T00:51:48;99665.16;;;11.71;90.60
27334;BME280;14817;57.104;-2.094;2022-09-30T00:54:23;99668.13;;;11.76;90.64
27334;BME280;14817;57.104;-2.094;2022-09-30T00:56:54;99668.84;;;11.70;90.02
27334;BME280;14817;57.104;-2.094;2022-09-30T00:59:33;99660.16;;;11.68;90.58
27334;BME280;14817;57.104;-2.094;2022-09-30T01:02:01;99652.56;;;11.71;90.78
27334;BME280;14817;57.104;-2.094;2022-09-30T01:04:30;99645.00;;;11.75;90.58
27334;BME280;14817;57.104;-2.094;2022-09-30T01:07:03;99651.56;;;11.72;91.05
27334;BME280;14817;57.104;-2.094;2022-09-30T01:09:33;99647.03;;;11.73;90.74
27334;BME280;14817;57.104;-2.094;2022-09-30T01:12:06;99630.94;;;11.73;90.34
27334;BME280;14817;57.104;-2.094;2022-09-30T01:14:35;99633.78;;;11.71;89.96
27334;BME280;14817;57.104;-2.094;2022-09-30T01:17:34;99622.22;;;11.71;89.80
27334;BME280;14817;57.104;-2.094;2022-09-30T01:33:42;99588.81;;;11.58;89.43
27334;BME280;14817;57.104;-2.094;2022-09-30T01:43:28;99564.81;;;11.65;89.56
27334;BME280;14817;57.104;-2.094;2022-09-30T01:45:42;99552.88;;;11.68;89.57
27334;BME280;14817;57.104;-2.094;2022-09-30T01:48:22;99545.66;;;11.68;89.34
27334;BME280;14817;57.104;-2.094;2022-09-30T01:50:57;99548.34;;;11.68;88.40
27334;BME280;14817;57.104;-2.094;2022-09-30T01:56:05;99534.75;;;11.70;88.70
27334;BME280;14817;57.104;-2.094;2022-09-30T02:01:15;99522.06;;;11.63;87.33
27334;BME280;14817;57.104;-2.094;2022-09-30T02:03:50;99518.75;;;11.61;87.20
27334;BME280;14817;57.104;-2.094;2022-09-30T02:06:22;99510.22;;;11.58;86.76
27334;BME280;14817;57.104;-2.094;2022-09-30T02:11:40;99495.16;;;11.57;86.06
27334;BME280;14817;57.104;-2.094;2022-09-30T02:14:25;99491.28;;;11.59;85.97
27334;BME280;14817;57.104;-2.094;2022-09-30T02:22:12;99476.00;;;11.60;85.98
27334;BME280;14817;57.104;-2.094;2022-09-30T02:24:41;99468.53;;;11.55;85.89
27334;BME280;14817;57.104;-2.094;2022-09-30T02:27:34;99473.50;;;11.58;86.06
27334;BME280;14817;57.104;-2.094;2022-09-30T02:30:06;99461.50;;;11.54;86.09
27334;BME280;14817;57.104;-2.094;2022-09-30T02:32:39;99449.94;;;11.54;85.87
27334;BME280;14817;57.104;-2.094;2022-09-30T02:35:12;99452.81;;;11.52;86.05
27334;BME280;14817;57.104;-2.094;2022-09-30T02:37:45;99437.72;;;11.51;85.10
27334;BME280;14817;57.104;-2.094;2022-09-30T02:40:27;99426.44;;;11.56;84.98
27334;BME280;14817;57.104;-2.094;2022-09-30T02:42:56;99427.28;;;11.56;85.32
27334;BME280;14817;57.104;-2.094;2022-09-30T02:45:23;99426.44;;;11.56;85.40
27334;BME280;14817;57.104;-2.094;2022-09-30T02:50:51;99409.53;;;11.55;85.74
27334;BME280;14817;57.104;-2.094;2022-09-30T02:53:36;99388.91;;;11.56;85.91
27334;BME280;14817;57.104;-2.094;2022-09-30T02:58:42;99377.75;;;11.52;86.43
27334;BME280;14817;57.104;-2.094;2022-09-30T03:01:12;99376.44;;;11.48;86.41
27334;BME280;14817;57.104;-2.094;2022-09-30T03:03:43;99368.41;;;11.48;86.08
27334;BME280;14817;57.104;-2.094;2022-09-30T03:06:12;99368.84;;;11.52;86.15
27334;BME280;14817;57.104;-2.094;2022-09-30T03:08:39;99352.13;;;11.50;86.11
27334;BME280;14817;57.104;-2.094;2022-09-30T03:11:06;99342.59;;;11.47;86.36
27334;BME280;14817;57.104;-2.094;2022-09-30T03:13:54;99340.97;;;11.46;86.73
27334;BME280;14817;57.104;-2.094;2022-09-30T03:30:23;99306.34;;;11.51;86.76
27334;BME280;14817;57.104;-2.094;2022-09-30T03:32:48;99291.94;;;11.52;86.87
27334;BME280;14817;57.104;-2.094;2022-09-30T03:41:27;99267.28;;;11.42;87.70
27334;BME280;14817;57.104;-2.094;2022-09-30T03:44:03;99260.13;;;11.49;87.23
27334;BME280;14817;57.104;-2.094;2022-09-30T03:46:37;99259.50;;;11.47;87.34
27334;BME280;14817;57.104;-2.094;2022-09-30T03:49:05;99248.00;;;11.53;87.18
27334;BME280;14817;57.104;-2.094;2022-09-30T03:51:37;99247.38;;;11.51;86.82
27334;BME280;14817;57.104;-2.094;2022-09-30T03:54:11;99223.00;;;11.46;86.37
27334;BME280;14817;57.104;-2.094;2022-09-30T03:56:39;99219.22;;;11.40;84.56
27334;BME280;14817;57.104;-2.094;2022-09-30T03:59:21;99214.31;;;11.44;84.12
27334;BME280;14817;57.104;-2.094;2022-09-30T04:01:50;99205.06;;;11.47;84.69
27334;BME280;14817;57.104;-2.094;2022-09-30T04:04:17;99197.47;;;11.50;85.74
27334;BME280;14817;57.104;-2.094;2022-09-30T04:06:44;99196.44;;;11.51;85.65
27334;BME280;14817;57.104;-2.094;2022-09-30T04:09:11;99194.97;;;11.49;85.52
27334;BME280;14817;57.104;-2.094;2022-09-30T04:11:38;99185.72;;;11.51;85.59
27334;BME280;14817;57.104;-2.094;2022-09-30T04:14:05;99168.81;;;11.51;85.75
27334;BME280;14817;57.104;-2.094;2022-09-30T04:16:32;99162.78;;;11.49;86.37
27334;BME280;14817;57.104;-2.094;2022-09-30T04:18:59;99151.44;;;11.47;86.30
27334;BME280;14817;57.104;-2.094;2022-09-30T04:21:26;99145.03;;;11.48;85.82
27334;BME280;14817;57.104;-2.094;2022-09-30T04:23:56;99149.22;;;11.50;86.30
27334;BME280;14817;57.104;-2.094;2022-09-30T04:26:23;99136.56;;;11.44;86.29
27334;BME280;14817;57.104;-2.094;2022-09-30T04:28:51;99134.91;;;11.43;86.48
27334;BME280;14817;57.104;-2.094;2022-09-30T04:31:18;99120.22;;;11.39;86.12
27334;BME280;14817;57.104;-2.094;2022-09-30T04:33:46;99118.56;;;11.38;85.32
27334;BME280;14817;57.104;-2.094;2022-09-30T04:36:13;99117.16;;;11.42;85.12
27334;BME280;14817;57.104;-2.094;2022-09-30T04:38:40;99106.22;;;11.43;85.76
27334;BME280;14817;57.104;-2.094;2022-09-30T04:41:12;99103.13;;;11.40;86.39
27334;BME280;14817;57.104;-2.094;2022-09-30T04:43:45;99101.44;;;11.39;86.41
27334;BME280;14817;57.104;-2.094;2022-09-30T04:46:18;99098.41;;;11.42;86.73
27334;BME280;14817;57.104;-2.094;2022-09-30T04:48:46;99096.94;;;11.39;86.53
27334;BME280;14817;57.104;-2.094;2022-09-30T04:51:20;99089.28;;;11.36;85.83
27334;BME280;14817;57.104;-2.094;2022-09-30T04:53:47;99064.97;;;11.38;85.75
27334;BME280;14817;57.104;-2.094;2022-09-30T04:56:14;99060.19;;;11.33;85.70
27334;BME280;14817;57.104;-2.094;2022-09-30T04:58:42;99052.50;;;11.30;86.08
27334;BME280;14817;57.104;-2.094;2022-09-30T05:01:11;99026.75;;;11.29;86.03
27334;BME280;14817;57.104;-2.094;2022-09-30T05:03:39;99026.13;;;11.27;86.70
27334;BME280;14817;57.104;-2.094;2022-09-30T05:06:06;99013.34;;;11.29;86.56
27334;BME280;14817;57.104;-2.094;2022-09-30T05:08:33;99014.16;;;11.30;87.09
27334;BME280;14817;57.104;-2.094;2022-09-30T05:11:03;99026.53;;;11.31;87.31
27334;BME280;14817;57.104;-2.094;2022-09-30T05:13:35;99021.00;;;11.32;87.19
27334;BME280;14817;57.104;-2.094;2022-09-30T05:16:04;99004.31;;;11.37;86.82
27334;BME280;14817;57.104;-2.094;2022-09-30T05:18:31;98994.63;;;11.36;86.46
27334;BME280;14817;57.104;-2.094;2022-09-30T05:21:00;98997.28;;;11.29;86.11
27334;BME280;14817;57.104;-2.094;2022-09-30T05:23:29;98982.88;;;11.37;86.48
27334;BME280;14817;57.104;-2.094;2022-09-30T05:25:57;98979.97;;;11.32;86.23
27334;BME280;14817;57.104;-2.094;2022-09-30T05:28:24;98976.47;;;11.31;86.11
27334;BME280;14817;57.104;-2.094;2022-09-30T05:30:59;98967.19;;;11.34;86.41
27334;BME280;14817;57.104;-2.094;2022-09-30T05:33:28;98972.94;;;11.31;86.00
27334;BME280;14817;57.104;-2.094;2022-09-30T05:36:00;98962.22;;;11.31;86.62
27334;BME280;14817;57.104;-2.094;2022-09-30T05:38:27;98955.66;;;11.33;86.57
27334;BME280;14817;57.104;-2.094;2022-09-30T05:40:54;98954.19;;;11.31;86.76
27334;BME280;14817;57.104;-2.094;2022-09-30T05:43:20;98938.72;;;11.33;86.46
27334;BME280;14817;57.104;-2.094;2022-09-30T05:45:56;98945.50;;;11.29;86.46
27334;BME280;14817;57.104;-2.094;2022-09-30T05:48:24;98924.69;;;11.31;86.36
27334;BME280;14817;57.104;-2.094;2022-09-30T05:50:55;98933.78;;;11.30;86.64
27334;BME280;14817;57.104;-2.094;2022-09-30T05:53:23;98926.56;;;11.30;86.57
27334;BME280;14817;57.104;-2.094;2022-09-30T05:55:50;98899.13;;;11.28;86.71
27334;BME280;14817;57.104;-2.094;2022-09-30T05:58:18;98900.97;;;11.28;86.32
27334;BME280;14817;57.104;-2.094;2022-09-30T06:00:47;98905.31;;;11.29;86.19
27334;BME280;14817;57.104;-2.094;2022-09-30T06:03:15;98891.72;;;11.30;86.07
27334;BME280;14817;57.104;-2.094;2022-09-30T06:05:42;98891.53;;;11.32;86.29
27334;BME280;14817;57.104;-2.094;2022-09-30T06:08:11;98895.47;;;11.36;85.94
27334;BME280;14817;57.104;-2.094;2022-09-30T06:10:40;98885.56;;;11.36;85.54
27334;BME280;14817;57.104;-2.094;2022-09-30T06:13:08;98879.19;;;11.37;85.46
27334;BME280;14817;57.104;-2.094;2022-09-30T06:15:35;98876.28;;;11.39;84.97
27334;BME280;14817;57.104;-2.094;2022-09-30T06:18:05;98863.53;;;11.41;84.99
27334;BME280;14817;57.104;-2.094;2022-09-30T06:20:32;98870.56;;;11.42;83.74
27334;BME280;14817;57.104;-2.094;2022-09-30T06:23:00;98845.81;;;11.40;84.08
27334;BME280;14817;57.104;-2.094;2022-09-30T06:25:28;98845.81;;;11.40;83.60
27334;BME280;14817;57.104;-2.094;2022-09-30T06:27:55;98835.69;;;11.35;83.99
27334;BME280;14817;57.104;-2.094;2022-09-30T06:30:22;98838.16;;;11.37;83.71
27334;BME280;14817;57.104;-2.094;2022-09-30T06:32:49;98824.13;;;11.35;84.20
27334;BME280;14817;57.104;-2.094;2022-09-30T06:35:17;98802.28;;;11.38;84.75
27334;BME280;14817;57.104;-2.094;2022-09-30T06:37:45;98799.19;;;11.41;84.69
27334;BME280;14817;57.104;-2.094;2022-09-30T06:40:15;98796.31;;;11.42;84.37
27334;BME280;14817;57.104;-2.094;2022-09-30T06:42:42;98784.16;;;11.40;84.44
27334;BME280;14817;57.104;-2.094;2022-09-30T06:45:09;98781.84;;;11.37;83.64
27334;BME280;14817;57.104;-2.094;2022-09-30T06:47:49;98761.03;;;11.39;84.12
27334;BME280;14817;57.104;-2.094;2022-09-30T06:50:26;98735.91;;;11.40;84.20
27334;BME280;14817;57.104;-2.094;2022-09-30T06:52:57;98742.28;;;11.39;84.69
27334;BME280;14817;57.104;-2.094;2022-09-30T06:55:28;98732.19;;;11.41;83.99
27334;BME280;14817;57.104;-2.094;2022-09-30T06:57:57;98734.88;;;11.41;84.46
27334;BME280;14817;57.104;-2.094;2022-09-30T07:00:25;98715.72;;;11.44;84.74
27334;BME280;14817;57.104;-2.094;2022-09-30T07:02:55;98713.66;;;11.39;84.74
27334;BME280;14817;57.104;-2.094;2022-09-30T07:05:24;98707.25;;;11.40;84.58
27334;BME280;14817;57.104;-2.094;2022-09-30T07:07:52;98701.69;;;11.42;84.71
27334;BME280;14817;57.104;-2.094;2022-09-30T07:10:19;98698.38;;;11.40;85.26
27334;BME280;14817;57.104;-2.094;2022-09-30T07:12:50;98683.31;;;11.39;85.22
27334;BME280;14817;57.104;-2.094;2022-09-30T07:15:20;98680.66;;;11.45;85.17
27334;BME280;14817;57.104;-2.094;2022-09-30T07:17:52;98664.16;;;11.49;85.06
27334;BME280;14817;57.104;-2.094;2022-09-30T07:20:19;98675.91;;;11.48;84.98
27334;BME280;14817;57.104;-2.094;2022-09-30T07:22:46;98659.19;;;11.45;84.31
27334;BME280;14817;57.104;-2.094;2022-09-30T07:25:13;98649.72;;;11.43;84.04
27334;BME280;14817;57.104;-2.094;2022-09-30T07:27:41;98648.47;;;11.45;83.99
27334;BME280;14817;57.104;-2.094;2022-09-30T07:30:08;98644.97;;;11.45;84.65
27334;BME280;14817;57.104;-2.094;2022-09-30T07:32:43;98626.44;;;11.50;84.40
27334;BME280;14817;57.104;-2.094;2022-09-30T07:35:10;98626.44;;;11.57;84.57
27334;BME280;14817;57.104;-2.094;2022-09-30T07:37:38;98609.75;;;11.55;84.20
27334;BME280;14817;57.104;-2.094;2022-09-30T07:40:06;98598.59;;;11.58;83.89
27334;BME280;14817;57.104;-2.094;2022-09-30T07:42:36;98585.38;;;11.56;84.02
27334;BME280;14817;57.104;-2.094;2022-09-30T07:45:05;98575.91;;;11.60;83.94
27334;BME280;14817;57.104;-2.094;2022-09-30T07:47:32;98569.53;;;11.61;84.08
27334;BME280;14817;57.104;-2.094;2022-09-30T07:49:58;98560.03;;;11.59;83.92
27334;BME280;14817;57.104;-2.094;2022-09-30T07:52:25;98551.38;;;11.63;83.65
27334;BME280;14817;57.104;-2.094;2022-09-30T07:54:52;98541.66;;;11.69;83.97
27334;BME280;14817;57.104;-2.094;2022-09-30T07:57:19;98532.19;;;11.67;84.31
27334;BME280;14817;57.104;-2.094;2022-09-30T07:59:47;98521.44;;;11.67;85.37
27334;BME280;14817;57.104;-2.094;2022-09-30T08:02:15;98508.03;;;11.67;84.85
27334;BME280;14817;57.104;-2.094;2022-09-30T08:04:43;98499.19;;;11.59;84.64
27334;BME280;14817;57.104;-2.094;2022-09-30T08:07:11;98489.72;;;11.63;84.86
27334;BME280;14817;57.104;-2.094;2022-09-30T08:09:38;98483.31;;;11.58;85.24
27334;BME280;14817;57.104;-2.094;2022-09-30T08:12:05;98483.31;;;11.58;85.50
27334;BME280;14817;57.104;-2.094;2022-09-30T08:14:32;98478.78;;;11.52;86.17
27334;BME280;14817;57.104;-2.094;2022-09-30T08:16:59;98457.56;;;11.50;86.88
27334;BME280;14817;57.104;-2.094;2022-09-30T08:19:28;98459.22;;;11.51;87.55
27334;BME280;14817;57.104;-2.094;2022-09-30T08:21:55;98448.91;;;11.48;87.56
27334;BME280;14817;57.104;-2.094;2022-09-30T08:24:24;98439.03;;;11.42;87.18
27334;BME280;14817;57.104;-2.094;2022-09-30T08:26:51;98441.91;;;11.40;88.22
27334;BME280;14817;57.104;-2.094;2022-09-30T08:29:19;98427.50;;;11.41;88.61
27334;BME280;14817;57.104;-2.094;2022-09-30T08:32:06;98418.59;;;11.41;87.86
27334;BME280;14817;57.104;-2.094;2022-09-30T08:34:32;98415.31;;;11.32;88.24
27334;BME280;14817;57.104;-2.094;2022-09-30T08:37:02;98416.56;;;11.36;88.66
27334;BME280;14817;57.104;-2.094;2022-09-30T08:39:35;98395.72;;;11.38;88.60
27334;BME280;14817;57.104;-2.094;2022-09-30T08:42:14;98385.44;;;11.35;88.48
27334;BME280;14817;57.104;-2.094;2022-09-30T08:48:28;98370.59;;;11.33;88.97
27334;BME280;14817;57.104;-2.094;2022-09-30T08:53:29;98348.97;;;11.28;89.29
27334;BME280;14817;57.104;-2.094;2022-09-30T08:55:57;98338.84;;;11.36;89.74
27334;BME280;14817;57.104;-2.094;2022-09-30T08:58:31;98340.91;;;11.34;89.75
27334;BME280;14817;57.104;-2.094;2022-09-30T09:01:04;98324.81;;;11.34;90.04
27334;BME280;14817;57.104;-2.094;2022-09-30T09:03:32;98316.19;;;11.32;89.99
27334;BME280;14817;57.104;-2.094;2022-09-30T09:11:58;98278.25;;;11.29;90.15
27334;BME280;14817;57.104;-2.094;2022-09-30T09:14:46;98262.78;;;11.31;90.41
27334;BME280;14817;57.104;-2.094;2022-09-30T09:18:05;98263.41;;;11.33;90.80
27334;BME280;14817;57.104;-2.094;2022-09-30T09:20:19;98271.44;;;11.33;91.11
27334;BME280;14817;57.104;-2.094;2022-09-30T09:22:49;98259.50;;;11.29;90.81
27334;BME280;14817;57.104;-2.094;2022-09-30T09:25:19;98248.19;;;11.27;90.71
27334;BME280;14817;57.104;-2.094;2022-09-30T09:27:55;98245.72;;;11.25;90.54
27334;BME280;14817;57.104;-2.094;2022-09-30T09:30:25;98241.19;;;11.26;90.89
27334;BME280;14817;57.104;-2.094;2022-09-30T09:32:55;98221.78;;;11.30;90.92
27334;BME280;14817;57.104;-2.094;2022-09-30T09:41:26;98223.03;;;11.28;91.42
27334;BME280;14817;57.104;-2.094;2022-09-30T09:46:29;98211.09;;;11.23;91.40
27334;BME280;14817;57.104;-2.094;2022-09-30T09:51:52;98179.81;;;11.17;91.27
27334;BME280;14817;57.104;-2.094;2022-09-30T09:54:25;98173.41;;;11.18;92.03
27334;BME280;14817;57.104;-2.094;2022-09-30T09:57:28;98142.28;;;11.17;92.08
27334;BME280;14817;57.104;-2.094;2022-09-30T10:00:09;98146.44;;;11.13;91.73
27334;BME280;14817;57.104;-2.094;2022-09-30T10:03:00;98133.88;;;11.14;91.87
27334;BME280;14817;57.104;-2.094;2022-09-30T10:05:34;98129.75;;;11.11;91.91
27334;BME280;14817;57.104;-2.094;2022-09-30T10:08:21;98108.31;;;11.11;92.06
27334;BME280;14817;57.104;-2.094;2022-09-30T10:10:57;98099.44;;;11.17;92.40
27334;BME280;14817;57.104;-2.094;2022-09-30T10:16:03;98091.03;;;11.07;92.27
27334;BME280;14817;57.104;-2.094;2022-09-30T10:18:32;98064.25;;;11.07;92.34
27334;BME280;14817;57.104;-2.094;2022-09-30T10:21:24;98073.94;;;11.08;92.65
27334;BME280;14817;57.104;-2.094;2022-09-30T10:23:51;98069.84;;;11.06;92.97
27334;BME280;14817;57.104;-2.094;2022-09-30T10:26:21;98054.00;;;11.04;93.17
27334;BME280;14817;57.104;-2.094;2022-09-30T10:34:28;98031.69;;;11.10;92.58
27334;BME280;14817;57.104;-2.094;2022-09-30T10:36:58;97981.84;;;11.09;92.78
27334;BME280;14817;57.104;-2.094;2022-09-30T10:39:32;97982.06;;;11.08;93.38
27334;BME280;14817;57.104;-2.094;2022-09-30T10:44:44;97974.25;;;11.06;93.00
27334;BME280;14817;57.104;-2.094;2022-09-30T10:47:17;97934.22;;;11.11;93.17
27334;BME280;14817;57.104;-2.094;2022-09-30T10:50:02;97927.25;;;11.10;93.51
27334;BME280;14817;57.104;-2.094;2022-09-30T10:52:37;97919.00;;;11.12;93.05
27334;BME280;14817;57.104;-2.094;2022-09-30T10:57:47;97919.03;;;11.05;92.74
27334;BME280;14817;57.104;-2.094;2022-09-30T11:00:21;97909.50;;;11.09;93.11
27334;BME280;14817;57.104;-2.094;2022-09-30T11:03:04;97888.69;;;11.11;92.87
27334;BME280;14817;57.104;-2.094;2022-09-30T11:05:37;97864.38;;;11.13;93.11
27334;BME280;14817;57.104;-2.094;2022-09-30T11:21:12;97812.50;;;11.07;93.47
27334;BME280;14817;57.104;-2.094;2022-09-30T11:23:45;97815.16;;;11.07;93.46
27334;BME280;14817;57.104;-2.094;2022-09-30T11:37:44;97763.25;;;11.08;94.04
27334;BME280;14817;57.104;-2.094;2022-09-30T11:40:37;97742.66;;;11.09;93.85
27334;BME280;14817;57.104;-2.094;2022-09-30T11:43:12;97729.47;;;11.07;93.97
27334;BME280;14817;57.104;-2.094;2022-09-30T11:51:08;97661.28;;;11.10;94.62
27334;BME280;14817;57.104;-2.094;2022-09-30T11:54:08;97655.31;;;11.08;94.00
27334;BME280;14817;57.104;-2.094;2022-09-30T11:56:51;97643.34;;;11.10;94.35
27334;BME280;14817;57.104;-2.094;2022-09-30T11:59:30;97634.34;;;11.04;94.35
27334;BME280;14817;57.104;-2.094;2022-09-30T12:02:02;97607.13;;;11.08;94.11
27334;BME280;14817;57.104;-2.094;2022-09-30T12:04:34;97597.81;;;11.10;93.78
27334;BME280;14817;57.104;-2.094;2022-09-30T12:07:35;97602.09;;;11.11;94.11
27334;BME280;14817;57.104;-2.094;2022-09-30T12:12:52;97614.91;;;11.09;93.92
27334;BME280;14817;57.104;-2.094;2022-09-30T12:15:22;97586.03;;;11.11;94.02
27334;BME280;14817;57.104;-2.094;2022-09-30T12:17:54;97575.56;;;11.10;94.00
27334;BME280;14817;57.104;-2.094;2022-09-30T12:20:56;97555.75;;;11.11;93.80
27334;BME280;14817;57.104;-2.094;2022-09-30T12:25:58;97553.44;;;11.14;93.65
27334;BME280;14817;57.104;-2.094;2022-09-30T12:28:45;97567.88;;;11.13;93.61
27334;BME280;14817;57.104;-2.094;2022-09-30T12:37:43;97618.06;;;11.18;93.93
27334;BME280;14817;57.104;-2.094;2022-09-30T12:48:17;97560.09;;;11.12;94.21
27334;BME280;14817;57.104;-2.094;2022-09-30T12:50:48;97559.84;;;11.13;94.46
27334;BME280;14817;57.104;-2.094;2022-09-30T12:53:24;97540.28;;;11.13;94.66
27334;BME280;14817;57.104;-2.094;2022-09-30T12:55:51;97580.34;;;11.08;94.75
27334;BME280;14817;57.104;-2.094;2022-09-30T12:58:22;97516.41;;;11.11;95.02
27334;BME280;14817;57.104;-2.094;2022-09-30T13:06:14;97506.53;;;11.12;95.14
27334;BME280;14817;57.104;-2.094;2022-09-30T13:08:45;97492.88;;;11.13;95.28
27334;BME280;14817;57.104;-2.094;2022-09-30T13:14:20;97469.34;;;11.15;95.21
27334;BME280;14817;57.104;-2.094;2022-09-30T13:19:54;97471.00;;;11.16;95.13
27334;BME280;14817;57.104;-2.094;2022-09-30T13:40:43;97405.06;;;11.15;94.99
27334;BME280;14817;57.104;-2.094;2022-09-30T13:43:31;97431.41;;;11.18;94.78
27334;BME280;14817;57.104;-2.094;2022-09-30T13:46:10;97414.50;;;11.18;95.37
27334;BME280;14817;57.104;-2.094;2022-09-30T13:48:44;97447.00;;;11.21;95.37
27334;BME280;14817;57.104;-2.094;2022-09-30T13:51:15;97414.06;;;11.21;95.45
27334;BME280;14817;57.104;-2.094;2022-09-30T13:53:48;97423.47;;;11.23;95.27
27334;BME280;14817;57.104;-2.094;2022-09-30T13:56:26;97417.69;;;11.27;95.19
27334;BME280;14817;57.104;-2.094;2022-09-30T14:07:21;97399.72;;;11.27;95.23
27334;BME280;14817;57.104;-2.094;2022-09-30T14:12:37;97378.97;;;11.34;95.77
27334;BME280;14817;57.104;-2.094;2022-09-30T14:23:20;97366.28;;;11.41;95.56
27334;BME280;14817;57.104;-2.094;2022-09-30T14:26:25;97387.47;;;11.43;95.27
27334;BME280;14817;57.104;-2.094;2022-09-30T14:32:15;97371.47;;;11.60;95.76
27334;BME280;14817;57.104;-2.094;2022-09-30T14:34:45;97378.00;;;11.76;95.52
27334;BME280;14817;57.104;-2.094;2022-09-30T14:37:19;97378.66;;;11.83;95.63
27334;BME280;14817;57.104;-2.094;2022-09-30T14:39:47;97382.50;;;11.75;95.72
27334;BME280;14817;57.104;-2.094;2022-09-30T14:42:44;97384.38;;;11.75;95.90
27334;BME280;14817;57.104;-2.094;2022-09-30T14:45:08;97369.44;;;11.79;96.05
27334;BME280;14817;57.104;-2.094;2022-09-30T14:47:38;97370.84;;;11.81;95.77
27334;BME280;14817;57.104;-2.094;2022-09-30T14:50:09;97364.75;;;11.86;95.70
27334;BME280;14817;57.104;-2.094;2022-09-30T14:55:22;97385.84;;;12.06;95.56
27334;BME280;14817;57.104;-2.094;2022-09-30T14:57:52;97386.06;;;12.04;95.42
27334;BME280;14817;57.104;-2.094;2022-09-30T15:00:26;97382.50;;;12.16;95.41
27334;BME280;14817;57.104;-2.094;2022-09-30T15:02:53;97376.53;;;12.25;95.07
27334;BME280;14817;57.104;-2.094;2022-09-30T15:05:20;97384.34;;;12.27;94.45
27334;BME280;14817;57.104;-2.094;2022-09-30T15:07:47;97384.50;;;12.37;94.69
27334;BME280;14817;57.104;-2.094;2022-09-30T15:10:20;97383.63;;;12.32;94.39
27334;BME280;14817;57.104;-2.094;2022-09-30T15:12:51;97387.31;;;12.42;94.52
27334;BME280;14817;57.104;-2.094;2022-09-30T15:15:26;97383.56;;;12.43;94.36
27334;BME280;14817;57.104;-2.094;2022-09-30T15:17:53;97392.19;;;12.45;94.85
27334;BME280;14817;57.104;-2.094;2022-09-30T15:20:29;97385.19;;;12.44;94.93
27334;BME280;14817;57.104;-2.094;2022-09-30T15:22:59;97391.06;;;12.58;94.51
27334;BME280;14817;57.104;-2.094;2022-09-30T15:25:29;97389.94;;;12.71;94.53
27334;BME280;14817;57.104;-2.094;2022-09-30T15:27:57;97402.06;;;12.91;94.43
27334;BME280;14817;57.104;-2.094;2022-09-30T15:30:26;97423.47;;;13.02;93.97
27334;BME280;14817;57.104;-2.094;2022-09-30T15:33:03;97416.06;;;13.10;93.76
27334;BME280;14817;57.104;-2.094;2022-09-30T15:35:31;97423.13;;;12.99;93.70
27334;BME280;14817;57.104;-2.094;2022-09-30T15:38:18;97417.13;;;12.92;94.41
27334;BME280;14817;57.104;-2.094;2022-09-30T15:40:50;97412.78;;;12.91;94.17
27334;BME280;14817;57.104;-2.094;2022-09-30T15:43:43;97421.69;;;12.91;93.67
27334;BME280;14817;57.104;-2.094;2022-09-30T15:46:27;97429.97;;;12.90;94.01
27334;BME280;14817;57.104;-2.094;2022-09-30T15:49:00;97444.44;;;12.88;93.52
27334;BME280;14817;57.104;-2.094;2022-09-30T15:51:39;97441.94;;;12.99;93.52
27334;BME280;14817;57.104;-2.094;2022-09-30T15:54:26;97446.09;;;13.06;92.34
27334;BME280;14817;57.104;-2.094;2022-09-30T15:56:53;97450.34;;;13.02;89.16
27334;BME280;14817;57.104;-2.094;2022-09-30T15:59:20;97460.34;;;13.07;88.67
27334;BME280;14817;57.104;-2.094;2022-09-30T16:01:51;97460.91;;;13.09;88.36
27334;BME280;14817;57.104;-2.094;2022-09-30T16:04:23;97458.00;;;13.11;88.72
27334;BME280;14817;57.104;-2.094;2022-09-30T16:06:59;97465.47;;;13.08;87.94
27334;BME280;14817;57.104;-2.094;2022-09-30T16:09:38;97478.66;;;12.93;85.02
27334;BME280;14817;57.104;-2.094;2022-09-30T16:14:43;97476.53;;;12.78;79.93
27334;BME280;14817;57.104;-2.094;2022-09-30T16:17:18;97496.38;;;12.77;80.51
27334;BME280;14817;57.104;-2.094;2022-09-30T16:20:24;97501.75;;;12.77;78.87
27334;BME280;14817;57.104;-2.094;2022-09-30T16:22:53;97504.81;;;12.69;78.38
27334;BME280;14817;57.104;-2.094;2022-09-30T16:25:27;97504.81;;;12.69;78.66
27334;BME280;14817;57.104;-2.094;2022-09-30T16:30:25;97513.34;;;12.66;79.05
27334;BME280;14817;57.104;-2.094;2022-09-30T16:32:55;97518.28;;;12.57;77.90
27334;BME280;14817;57.104;-2.094;2022-09-30T16:35:27;97530.22;;;12.50;77.77
27334;BME280;14817;57.104;-2.094;2022-09-30T16:38:02;97533.19;;;12.36;78.13
27334;BME280;14817;57.104;-2.094;2022-09-30T16:40:30;97551.97;;;12.24;77.93
27334;BME280;14817;57.104;-2.094;2022-09-30T16:42:57;97547.31;;;12.20;77.77